Tiempo atmosférico en la estación meteorológica de Roncesvalles, Navarra (940 m.)



Fecha
DESCASC
Temp. máxima en grados centígrados (hora)
DESCASC
Temp. mínima en grados centígrados (hora)
DESCASC
Temp. media en grados centígrados
DESCASC
Racha de viento máxima en m/sg (hora)
DESCASC
Velocidad máxima media en intervalos de 10 minutos(hora)
DESCASC
Precipitaciones diarias en mm
DESCASC
Precipitaciones de 00:00 a 06:00 en mm
DESCASC
Precipitaciones de 06:00 a 12:00 en mm
DESCASC
Precipitaciones de 12:00 a 18:00 en mm
DESCASC
Precipitaciones de 18:00 a 24:00 en mm
DESCASC
14-08-2019 22.1 (15:00) 5.7 (00:00) 13.9 7.22 (18:10) 2.78 (15:30) 0 0 0 0 0
28-07-2019 16.8 (18:00) 8.2 (00:00) 12.5 6.94 (11:20) 3.61 (16:40) 12 10.4 1.6 0 0
30-07-2019 14.9 (15:50) 10.5 (00:00) 12.7 7.78 (05:10) 3.61 (04:50) 3.2 2.4 0.4 0.4 0
27-07-2019 13.5 (15:40) 10.5 (00:00) 12 8.06 (20:40) 3.89 (08:50) 14.8 2 1.4 6.8 4.6
15-08-2019 17.1 (14:50) 11.4 (00:00) 14.3 8.33 (15:40) 3.89 (10:50) 3.6 0.4 3.2 0 0
13-08-2019 15.4 (15:30) 9.4 (00:00) 12.4 8.89 (02:20) 3.89 (23:30) 0.2 0.2 0 0 0
22-07-2019 32.5 (17:20) 15.9 (00:00) 24.2 7.22 (12:50) 3.89 (13:50) 0 0 0 0 0
12-08-2019 14.3 (14:20) 9.8 (00:00) 12.1 9.17 (15:30) 4.17 (11:50) 5.2 1.2 1.8 0 2.2
24-07-2019 31.9 (17:30) 16.8 (00:00) 24.3 7.22 (13:10) 4.44 (13:20) 0 0 0 0 0
16-08-2019 27.4 (16:20) 6.3 (07:10) 16.8 9.44 (00:40) 4.44 (00:50) 0 0 0 0 0
07-08-2019 21.6 (16:50) 14.5 (00:00) 18.1 8.33 (02:50) 4.72 (14:40) 1.2 1.2 0 0 0
05-08-2019 25.4 (14:00) 14.4 (00:00) 19.9 10 (19:40) 5 (18:50) 0 0 0 0 0
18-08-2019 25.8 (12:10) 12.7 (23:59) 19.2 9.72 (13:30) 5 (13:50) 5.2 0 0 0 5.2
17-08-2019 28.7 (15:30) 12.2 (06:30) 20.5 9.44 (17:00) 5 (17:00) 0 0 0 0 0
11-08-2019 16.1 (18:00) 12.3 (00:00) 14.2 9.44 (01:50) 5 (04:40) 6.4 3.8 2.4 0 0.2
10-08-2019 18.9 (14:50) 13.2 (00:00) 16 9.44 (20:20) 5 (23:40) 0.4 0.2 0 0 0.2
31-07-2019 16.1 (16:40) 9.6 (00:00) 12.9 10.83 (21:40) 5 (15:10) 0 0 0 0 0
26-07-2019 19.5 (13:30) 13.3 (00:00) 16.4 9.44 (04:20) 5 (04:20) 10.8 1.4 1.6 0.2 7.6
06-08-2019 27.6 (16:00) 14.6 (00:00) 21.1 10.56 (19:50) 5.28 (18:30) 0 0 0 0 0
04-08-2019 25.2 (14:10) 15 (00:00) 20.1 10.83 (17:00) 5.28 (16:30) 0.2 0 0 0 0.2
25-07-2019 32.6 (16:30) 17.9 (00:00) 25.2 10 (23:59) 5.56 (23:59) 0 0 0 0 0
08-08-2019 28.2 (17:50) 14.9 (00:00) 21.6 10 (12:40) 5.83 (12:40) 0 0 0 0 0
03-08-2019 27.3 (14:10) 9.6 (00:00) 18.4 10 (18:00) 5.83 (19:10) 0 0 0 0 0
01-08-2019 22.8 (14:20) 11.4 (00:00) 17.1 11.11 (08:00) 5.83 (17:30) 5.6 0 5.2 0 0.4
29-07-2019 24.9 (14:40) 6.7 (00:00) 15.8 10.28 (16:20) 5.83 (16:10) 3 0 0 0 3
02-08-2019 18.8 (18:30) 13.4 (00:00) 16.1 11.11 (19:40) 6.11 (19:50) 0.2 0.2 0 0 0
23-07-2019 32.7 (16:10) 17.7 (00:00) 25.2 10.56 (12:20) 6.11 (12:40) 0.6 0 0 0 0.6
09-08-2019 29.2 (15:50) 16.2 (00:00) 22.7 11.39 (10:30) 6.39 (09:40) 7 0 0 0 7

Gráficas

Temp. máximas Temp. mínimas Temp. medias Precipitaciones Rachas de viento máximas Velocidades máximas media en intervalos de 10 minutos

Datos horarios

Fecha y hora oficial Temperatura (ºC) Velocidad del viento (km/h) Dirección del viento Racha (km/h) Dirección de racha Precipitación (mm) Presión (hPa) Tendencia (hPa) Humedad (%)
2019-08-20 23:00:00 13 6 Nordeste 22 Noroeste 0 -- -- 95
2019-08-20 22:00:00 13 8 Nordeste 27 Nordeste 0 -- -- 92
2019-08-20 21:00:00 13 8 Nordeste 22 Nordeste 0 -- -- 95
2019-08-20 20:00:00 13.3 8 Nordeste 22 Este 0 -- -- 94
2019-08-20 19:00:00 12.9 7 Nordeste 29 Norte 0 -- -- 96
2019-08-20 18:00:00 12.8 5 Nordeste 26 Nordeste 0 -- -- 95
2019-08-20 17:00:00 12.7 8 Nordeste 29 Este 0 -- -- 97
2019-08-20 16:00:00 12.9 9 Nordeste 21 Este 0 -- -- 98
2019-08-20 15:00:00 12.2 8 Norte 26 Norte 0 -- -- 98
2019-08-20 14:00:00 12.2 7 Sudeste 25 Noroeste 0 -- -- 97
2019-08-20 13:00:00 12.1 9 Noroeste 26 Noroeste 0 -- -- 96
2019-08-20 12:00:00 11.5 8 Norte 27 Nordeste 0 -- -- 95
2019-08-20 11:00:00 10.6 7 Nordeste 23 Norte 0.6 -- -- 100
2019-08-20 10:00:00 10.5 5 Sur 22 Noroeste 0.6 -- -- 100
2019-08-20 09:00:00 10.4 4 Sur 27 Norte 0 -- -- 100
2019-08-20 08:00:00 10.3 13 Nordeste 28 Nordeste 2.2 -- -- 100
2019-08-20 07:00:00 10.3 12 Norte 30 Norte 0.8 -- -- 100
2019-08-20 06:00:00 10.5 10 Norte 35 Norte 0.2 -- -- 100
2019-08-20 05:00:00 10.9 10 Norte 40 Norte 1 -- -- 100
2019-08-20 04:00:00 10.9 14 Norte 31 Norte 1.2 -- -- 100
2019-08-20 03:00:00 11 8 Norte 26 Noroeste 0.2 -- -- 100
2019-08-20 02:00:00 11.2 12 Norte 32 Noroeste 0 -- -- 100
2019-08-20 01:00:00 11.6 11 Norte 27 Norte 0 -- -- 100
2019-08-20 00:00:00 11.8 8 Norte 33 Norte 0.2 -- -- 100
2019-08-19 23:00:00 11.8 13 Norte 30 Norte 0 -- -- 100
2019-08-19 22:00:00 11.9 12 Norte 35 Noroeste 0 -- -- 100
2019-08-19 21:00:00 12.3 13 Norte 31 Norte 0 -- -- 99
2019-08-19 20:00:00 12.2 9 Norte 29 Nordeste 0 -- -- 100
2019-08-19 19:00:00 12.8 10 Nordeste 24 Nordeste 0 -- -- 97
2019-08-19 18:00:00 12.8 11 Norte 28 Norte 0 -- -- 95
2019-08-19 17:00:00 12.9 11 Norte 26 Norte 0 -- -- 97
2019-08-19 16:00:00 12.5 9 Norte 24 Norte 0 -- -- 99
2019-08-19 15:00:00 12.2 9 Norte 28 Noroeste 0 -- -- 100
2019-08-19 14:00:00 12.6 14 Norte 34 Norte 0 -- -- 95
2019-08-19 13:00:00 12.8 17 Norte 35 Noroeste 0 -- -- 91
2019-08-19 12:00:00 12.7 17 Norte 34 Norte 0 -- -- 89
2019-08-19 11:00:00 13.1 13 Norte 34 Norte 0 -- -- 86
2019-08-19 10:00:00 13.3 8 Nordeste 30 Nordeste 0 -- -- 80
2019-08-19 09:00:00 11.4 9 Nordeste 23 Este 0 -- -- 88
2019-08-19 08:00:00 10.5 6 Norte 22 Norte 0 -- -- 94
2019-08-19 07:00:00 10.4 5 Nordeste 28 Este 0 -- -- 95
2019-08-19 06:00:00 10.2 6 Nordeste 24 Este 0.6 -- -- 100
2019-08-19 05:00:00 11.2 8 Este 21 Nordeste 0.2 -- -- 100
2019-08-19 04:00:00 11.3 4 Sur 24 Noroeste 0.2 -- -- 100
2019-08-19 03:00:00 11.1 7 Norte 23 Norte 0.4 -- -- 100
2019-08-19 02:00:00 11.3 6 Sudoeste 27 Este 0.6 -- -- 100
2019-08-19 01:00:00 12.4 8 Noroeste 24 Noroeste 0.4 -- -- 100
2019-08-19 00:00:00 12.7 10 Noroeste 25 Noroeste 1.4 -- -- 100
2019-08-18 23:00:00 13.6 8 Oeste 23 Noroeste 1 -- -- 100
2019-08-18 22:00:00 14.6 5 Sudoeste 26 Noroeste 0.6 -- -- 100
2019-08-18 21:00:00 14.9 8 Noroeste 30 Noroeste 0.6 -- -- 100
2019-08-18 20:00:00 15.3 8 Noroeste 25 Noroeste 1 -- -- 100
2019-08-18 19:00:00 15.8 5 Sur 22 Norte 0.6 -- -- 100
2019-08-18 18:00:00 15.8 4 Oeste 17 Noroeste 0 -- -- 100
2019-08-18 17:00:00 16.1 9 Noroeste 25 Norte 0 -- -- 100
2019-08-18 16:00:00 16.8 13 Norte 26 Norte 0 -- -- 100
2019-08-18 15:00:00 17.3 14 Norte 33 Norte 0 -- -- 100
2019-08-18 14:00:00 18.3 17 Norte 35 Nordeste 0 -- -- 96
2019-08-18 13:00:00 22 15 Norte 25 Noroeste 0 -- -- 83
2019-08-18 12:00:00 25.1 5 Sudoeste 15 Sudoeste 0 -- -- 64
2019-08-18 11:00:00 23.3 5 Sur 10 Sudoeste 0 -- -- 75
2019-08-18 10:00:00 20.4 5 Sur 10 Sur 0 -- -- 86
2019-08-18 09:00:00 18.8 3 Sur 8 Sudoeste 0 -- -- 92
2019-08-18 08:00:00 15.5 0 Calma 5 Sudoeste 0 -- -- 100
2019-08-18 07:00:00 15.6 0 Calma 4 Sudoeste 0 -- -- 98
2019-08-18 06:00:00 16.5 0 Calma 7 Noroeste 0 -- -- 93
2019-08-18 05:00:00 16.5 0 Calma 5 Noroeste 0 -- -- 92
2019-08-18 04:00:00 16.1 2 Noroeste 6 Sudoeste 0 -- -- 95
2019-08-18 03:00:00 16.5 3 Oeste 7 Oeste 0 -- -- 94
2019-08-18 02:00:00 16.4 3 Noroeste 4 Noroeste 0 -- -- 97
2019-08-18 01:00:00 15.3 0 Calma 5 Norte 0 -- -- 99
2019-08-18 00:00:00 15.4 0 Calma 4 Noroeste 0 -- -- 98
2019-08-17 23:00:00 15.7 0 Calma 4 Noroeste 0 -- -- 97
2019-08-17 22:00:00 15.9 0 Calma 4 Noroeste 0 -- -- 96
2019-08-17 21:00:00 17.8 2 Norte 23 Nordeste 0 -- -- 90
2019-08-17 20:00:00 20.3 12 Norte 26 Norte 0 -- -- 76
2019-08-17 19:00:00 21.7 14 Norte 27 Norte 0 -- -- 70
2019-08-17 18:00:00 22.1 15 Norte 31 Norte 0 -- -- 70
2019-08-17 17:00:00 22.6 18 Norte 34 Norte 0 -- -- 69
2019-08-17 16:00:00 23.5 16 Norte 31 Norte 0 -- -- 66
2019-08-17 15:00:00 28.4 7 Sudoeste 32 Sur 0 -- -- 47
2019-08-17 14:00:00 27 8 Sur 23 Sur 0 -- -- 57
2019-08-17 13:00:00 26 10 Sudoeste 24 Oeste 0 -- -- 59
2019-08-17 12:00:00 24.7 7 Sudoeste 18 Sudoeste 0 -- -- 61
2019-08-17 11:00:00 23.9 4 Sudoeste 12 Oeste 0 -- -- 65
2019-08-17 10:00:00 22.2 2 Sudoeste 7 Sudoeste 0 -- -- 65
2019-08-17 09:00:00 18.6 0 Calma 3 Noroeste 0 -- -- 80
2019-08-17 08:00:00 12.9 0 Calma 5 Noroeste 0 -- -- 100
2019-08-17 07:00:00 12.3 0 Calma 2 Norte 0 -- -- 100
2019-08-17 06:00:00 12.5 0 Calma 4 Noroeste 0 -- -- 100
2019-08-17 05:00:00 12.7 0 Calma 3 Norte 0 -- -- 100
2019-08-17 04:00:00 13 0 Calma 6 Nordeste 0 -- -- 99
2019-08-17 03:00:00 13.3 3 Norte 8 Norte 0 -- -- 98
2019-08-17 02:00:00 15.1 0 Calma 6 Sudoeste 0 -- -- 100
2019-08-17 01:00:00 16.1 3 Noroeste 20 Norte 0 -- -- 100
2019-08-17 00:00:00 16.9 5 Sudoeste 24 Nordeste 0 -- -- 98
2019-08-16 23:00:00 15.6 0 Calma 8 Sur 0 -- -- 100
2019-08-16 22:00:00 16.6 0 Calma 17 Norte 0 -- -- 99
2019-08-16 21:00:00 18.1 2 Noroeste 12 Sudoeste 0 -- -- 95
2019-08-16 20:00:00 21.7 5 Oeste 28 Norte 0 -- -- 73
2019-08-16 19:00:00 21.8 12 Norte 25 Norte 0 -- -- 81
2019-08-16 18:00:00 23.6 12 Norte 25 Nordeste 0 -- -- 71
2019-08-16 17:00:00 25.6 10 Norte 18 Norte 0 -- -- 55
2019-08-16 16:00:00 26.8 6 Sudoeste 22 Oeste 0 -- -- 44
2019-08-16 15:00:00 26 7 Sudoeste 21 Sur 0 -- -- 40
2019-08-16 14:00:00 24.8 12 Sur 22 Sur 0 -- -- 31
2019-08-16 13:00:00 23.4 8 Sudoeste 17 Sudoeste 0 -- -- 40
2019-08-16 12:00:00 21.9 7 Sur 14 Sur 0 -- -- 59
2019-08-16 11:00:00 19.4 5 Sur 12 Sudeste 0 -- -- 57
2019-08-16 10:00:00 17.9 3 Nordeste 12 Este 0 -- -- 67
2019-08-16 09:00:00 11.4 0 Calma 3 Sudeste 0 -- -- 94
2019-08-16 08:00:00 6.7 0 Calma 2 Noroeste 0 -- -- 100
2019-08-16 07:00:00 6.4 0 Calma 4 Norte 0 -- -- 100
2019-08-16 06:00:00 7.5 0 Calma 5 Norte 0 -- -- 100
2019-08-16 05:00:00 8.1 2 Norte 4 Nordeste 0 -- -- 100
2019-08-16 04:00:00 10.7 4 Norte 26 Nordeste 0 -- -- 100
2019-08-16 03:00:00 10.9 10 Norte 27 Norte 0 -- -- 100
2019-08-16 02:00:00 10.4 2 Norte 22 Nordeste 0 -- -- 97
2019-08-16 01:00:00 11.7 14 Norte 34 Norte 0 -- -- 95
2019-08-16 00:00:00 11.4 10 Norte 22 Nordeste 0 -- -- 99
2019-08-15 23:00:00 12.1 9 Nordeste 22 Nordeste 0 -- -- 96
2019-08-15 22:00:00 11.8 5 Este 16 Noroeste 0 -- -- 97
2019-08-15 21:00:00 12.7 5 Sudeste 21 Norte 0 -- -- 93
2019-08-15 20:00:00 13.8 6 Noroeste 23 Noroeste 0 -- -- 88
2019-08-15 19:00:00 14.1 5 Sur 26 Noroeste 0 -- -- 89
2019-08-15 18:00:00 16.3 8 Noroeste 24 Noroeste 0 -- -- 80
2019-08-15 17:00:00 16.3 8 Noroeste 23 Noroeste 0 -- -- 84
2019-08-15 16:00:00 15.9 12 Noroeste 30 Noroeste 0 -- -- 88
2019-08-15 15:00:00 16.4 8 Noroeste 25 Noroeste 0 -- -- 82
2019-08-15 14:00:00 16.1 6 Nordeste 17 Nordeste 0 -- -- 82
2019-08-15 13:00:00 14.6 4 Norte 18 Noroeste 0 -- -- 90
2019-08-15 12:00:00 15.2 8 Nordeste 21 Norte 0 -- -- 87
2019-08-15 11:00:00 15.4 13 Nordeste 26 Nordeste 0 -- -- 87
2019-08-15 10:00:00 13.8 6 Este 25 Nordeste 0.2 -- -- 95
2019-08-15 09:00:00 14.5 5 Norte 14 Norte 2.2 -- -- 98
2019-08-15 08:00:00 14.2 2 Noroeste 6 Nordeste 0.8 -- -- 100
2019-08-15 07:00:00 14.3 0 Calma 10 Nordeste 0 -- -- 98
2019-08-15 06:00:00 14.7 4 Noroeste 11 Norte 0.2 -- -- 98
2019-08-15 05:00:00 15 3 Oeste 14 Noroeste 0 -- -- 99
2019-08-15 04:00:00 15.2 5 Sudoeste 18 Norte 0.2 -- -- 98
2019-08-15 03:00:00 15.4 6 Norte 17 Noroeste 0 -- -- 97
2019-08-15 02:00:00 15.4 6 Norte 18 Norte 0 -- -- 99
2019-08-15 01:00:00 14.9 2 Sudeste 11 Norte 0 -- -- 100
2019-08-15 00:00:00 15.3 3 Nordeste 8 Este 0 -- -- 93
2019-08-14 23:00:00 15.3 4 Noroeste 19 Noroeste 0 -- -- 86
2019-08-14 22:00:00 15.8 6 Norte 19 Noroeste 0 -- -- 81
2019-08-14 21:00:00 16.3 7 Norte 19 Norte 0 -- -- 80
2019-08-14 20:00:00 18.3 6 Norte 19 Norte 0 -- -- 69
2019-08-14 19:00:00 19.7 5 Noroeste 26 Noroeste 0 -- -- 57
2019-08-14 18:00:00 20.8 5 Noroeste 23 Noroeste 0 -- -- 62
2019-08-14 17:00:00 21.1 5 Sudoeste 22 Noroeste 0 -- -- 61
2019-08-14 16:00:00 21.3 8 Norte 21 Nordeste 0 -- -- 57
2019-08-14 15:00:00 22.1 5 Norte 19 Norte 0 -- -- 56
2019-08-14 14:00:00 21.5 6 Nordeste 15 Norte 0 -- -- 53
2019-08-14 13:00:00 20.6 8 Sudoeste 19 Oeste 0 -- -- 48
2019-08-14 12:00:00 20.1 6 Sudoeste 15 Sur 0 -- -- 49
2019-08-14 11:00:00 18.1 5 Sur 10 Sur 0 -- -- 58
2019-08-14 10:00:00 15.6 2 Sur 4 Sudoeste 0 -- -- 75
2019-08-14 09:00:00 11.5 0 Calma 2 Sur 0 -- -- 88
2019-08-14 08:00:00 6.9 0 Calma 2 Norte 0 -- -- 100
2019-08-14 07:00:00 5.8 0 Calma 2 Norte 0 -- -- 100
2019-08-14 06:00:00 6 0 Calma 3 Norte 0 -- -- 100
2019-08-14 05:00:00 6.2 0 Calma 3 Norte 0 -- -- 100
2019-08-14 04:00:00 7 2 Noroeste 4 Norte 0 -- -- 100
2019-08-14 03:00:00 7.6 0 Calma 5 Norte 0 -- -- 100
2019-08-14 02:00:00 8.3 2 Noroeste 6 Oeste 0 -- -- 100
2019-08-14 01:00:00 8.8 0 Calma 21 Norte 0 -- -- 100
2019-08-14 00:00:00 10.6 9 Norte 28 Noroeste 0 -- -- 96
2019-08-13 23:00:00 10.9 10 Norte 26 Norte 0 -- -- 97
2019-08-13 22:00:00 11.2 10 Norte 28 Noroeste 0 -- -- 96
2019-08-13 21:00:00 11.9 6 Nordeste 21 Nordeste 0 -- -- 92
2019-08-13 20:00:00 12.7 5 Noroeste 25 Noroeste 0 -- -- 90
2019-08-13 19:00:00 14.9 5 Noroeste 27 Noroeste 0 -- -- 79
2019-08-13 18:00:00 14.4 9 Noroeste 23 Noroeste 0 -- -- 79
2019-08-13 17:00:00 15.2 6 Este 24 Noroeste 0 -- -- 74
2019-08-13 16:00:00 14.5 9 Noroeste 29 Norte 0 -- -- 81
2019-08-13 15:00:00 14.2 8 Noroeste 25 Noroeste 0 -- -- 80
2019-08-13 14:00:00 14.9 9 Noroeste 26 Noroeste 0 -- -- 77
2019-08-13 13:00:00 14.2 9 Noroeste 27 Noroeste 0 -- -- 79
2019-08-13 12:00:00 13.3 5 Norte 24 Noroeste 0 -- -- 84
2019-08-13 11:00:00 12.6 6 Nordeste 27 Nordeste 0 -- -- 81
2019-08-13 10:00:00 10.5 7 Este 22 Nordeste 0 -- -- 89
2019-08-13 09:00:00 9.9 5 Sudeste 21 Noroeste 0 -- -- 93
2019-08-13 08:00:00 9.5 4 Norte 25 Este 0 -- -- 94
2019-08-13 07:00:00 9.4 4 Sudeste 17 Nordeste 0 -- -- 98
2019-08-13 06:00:00 9.7 11 Este 25 Este 0 -- -- 97
2019-08-13 05:00:00 9.8 12 Este 26 Nordeste 0 -- -- 91
2019-08-13 04:00:00 10.2 11 Este 30 Este 0 -- -- 92
2019-08-13 03:00:00 10.2 8 Este 32 Este 0 -- -- 96
2019-08-13 02:00:00 10.2 8 Sudeste 23 Este 0.2 -- -- 100
2019-08-13 01:00:00 10.4 7 Este 27 Este 0 -- -- 96
2019-08-13 00:00:00 10.1 5 Este 13 Oeste 0 -- -- 98
2019-08-12 23:00:00 10 7 Este 19 Sudeste 1.6 -- -- 97
2019-08-12 22:00:00 10.5 3 Sudoeste 16 Este 0.4 -- -- 99
2019-08-12 21:00:00 10.6 6 Sur 15 Este 0 -- -- 96
2019-08-12 20:00:00 10.9 6 Oeste 16 Noroeste 0.2 -- -- 97
2019-08-12 19:00:00 11.6 5 Sudoeste 18 Noroeste 0 -- -- 95
2019-08-12 18:00:00 12.8 6 Sur 24 Noroeste 0 -- -- 85
2019-08-12 17:00:00 13.9 8 Norte 30 Noroeste 0 -- -- 75
2019-08-12 16:00:00 13.8 8 Noroeste 33 Noroeste 0 -- -- 78
2019-08-12 15:00:00 13.4 8 Norte 28 Nordeste 0 -- -- 83
2019-08-12 14:00:00 14.1 11 Norte 29 Nordeste 0 -- -- 82
2019-08-12 13:00:00 12.4 13 Nordeste 28 Norte 0 -- -- 90
2019-08-12 12:00:00 12.1 10 Norte 31 Noroeste 0 -- -- 91
2019-08-12 11:00:00 11.4 10 Norte 31 Norte 0 -- -- 96
2019-08-12 10:00:00 10.8 11 Norte 29 Nordeste 0 -- -- 96
2019-08-12 09:00:00 10.6 11 Norte 27 Norte 0.2 -- -- 99
2019-08-12 08:00:00 10.6 8 Norte 24 Nordeste 1 -- -- 100
2019-08-12 07:00:00 11.2 9 Noroeste 22 Norte 0.6 -- -- 100
2019-08-12 06:00:00 11.2 5 Oeste 17 Noroeste 0 -- -- 100
2019-08-12 05:00:00 11.1 4 Oeste 14 Nordeste 0.2 -- -- 100
2019-08-12 04:00:00 11.3 5 Oeste 18 Sudoeste 0.4 -- -- 100
2019-08-12 03:00:00 11.7 3 Sur 13 Sudeste 0.2 -- -- 100
2019-08-12 02:00:00 11.9 4 Sudeste 18 Este 0.4 -- -- 100
2019-08-12 01:00:00 11.9 4 Sudoeste 21 Este 0 -- -- 100
2019-08-12 00:00:00 12.3 6 Este 19 Nordeste 0.2 -- -- 100
2019-08-11 23:00:00 12.6 7 Este 29 Este 0 -- -- 100
2019-08-11 22:00:00 13 9 Sudeste 22 Este 0 -- -- 99
2019-08-11 21:00:00 12.9 8 Norte 22 Noroeste 0 -- -- 98
2019-08-11 20:00:00 13.8 6 Sudeste 23 Norte 0 -- -- 97
2019-08-11 19:00:00 14.3 7 Noroeste 30 Norte 0 -- -- 93
2019-08-11 18:00:00 16.1 4 Nordeste 21 Noroeste 0 -- -- 90
2019-08-11 17:00:00 14 10 Norte 27 Norte 0 -- -- 98
2019-08-11 16:00:00 14.4 13 Norte 27 Norte 0 -- -- 97
2019-08-11 15:00:00 14.6 15 Norte 27 Norte 0 -- -- 97
2019-08-11 14:00:00 13.7 13 Norte 24 Norte 0 -- -- 99
2019-08-11 13:00:00 14.3 12 Norte 23 Norte 0 -- -- 100
2019-08-11 12:00:00 13.1 12 Norte 22 Norte 0 -- -- 100
2019-08-11 11:00:00 12.4 8 Norte 18 Norte 0.2 -- -- 100
2019-08-11 10:00:00 12.6 6 Sur 19 Noroeste 0.2 -- -- 100
2019-08-11 09:00:00 13 6 Nordeste 15 Este 1.8 -- -- 100
2019-08-11 08:00:00 13.1 0 Calma 17 Nordeste 0 -- -- 100
2019-08-11 07:00:00 13 5 Nordeste 22 Norte 0.2 -- -- 100
2019-08-11 06:00:00 12.9 8 Norte 33 Norte 0.6 -- -- 100
2019-08-11 05:00:00 12.8 15 Norte 33 Norte 2.6 -- -- 100
2019-08-11 04:00:00 12.8 18 Norte 33 Norte 0 -- -- 100
2019-08-11 03:00:00 12.8 17 Norte 32 Norte 0 -- -- 100
2019-08-11 02:00:00 13.1 13 Norte 34 Norte 0.2 -- -- 100
2019-08-11 01:00:00 13.2 16 Norte 31 Norte 0.4 -- -- 100
2019-08-11 00:00:00 13.6 12 Norte 32 Norte -- -- -- 100
2019-08-10 23:00:00 13.9 13 Norte 27 Norte 0.2 -- -- 100
2019-08-10 22:00:00 13.9 11 Norte 26 Noroeste 0 -- -- 100
2019-08-10 21:00:00 13.9 11 Norte 34 Norte 0 -- -- 100
2019-08-10 20:00:00 14 15 Norte 32 Noroeste 0 -- -- 100
2019-08-10 19:00:00 15.1 12 Norte 24 Noroeste 0 -- -- 99
2019-08-10 18:00:00 16.7 10 Norte 30 Norte 0 -- -- 93
2019-08-10 17:00:00 17.4 15 Norte 30 Norte 0 -- -- 89
2019-08-10 16:00:00 18.4 13 Norte 28 Norte 0 -- -- 83
2019-08-10 15:00:00 18.5 15 Norte 27 Norte 0 -- -- 83
2019-08-10 14:00:00 18.4 14 Norte 27 Norte 0 -- -- 80
2019-08-10 13:00:00 18.3 12 Norte 22 Norte 0 -- -- 78
2019-08-10 12:00:00 17.9 12 Norte 24 Norte 0 -- -- 81
2019-08-10 11:00:00 16.4 9 Norte 18 Norte 0 -- -- 90
2019-08-10 10:00:00 15.9 6 Norte 18 Norte 0 -- -- 94
2019-08-10 09:00:00 15.6 6 Norte 15 Norte 0 -- -- 93
2019-08-10 08:00:00 14.1 6 Norte 22 Norte 0 -- -- 97
2019-08-10 07:00:00 14.4 9 Norte 22 Norte 0 -- -- 99
2019-08-10 06:00:00 14.4 9 Norte 23 Norte 0 -- -- 100
2019-08-10 05:00:00 14.5 10 Norte 25 Norte 0 -- -- 100
2019-08-10 04:00:00 14.4 9 Norte 18 Nordeste 0 -- -- 99
2019-08-10 03:00:00 14.8 8 Norte 18 Norte 0.2 -- -- 100
2019-08-10 02:00:00 13.2 0 Calma 15 Norte 0 -- -- 100
2019-08-10 01:00:00 13.5 3 Norte 9 Nordeste 0 -- -- 100
2019-08-10 00:00:00 16.2 5 Norte 12 Noroeste 0.2 -- -- 99
2019-08-09 23:00:00 17.3 4 Sudeste 18 Noroeste 6.2 -- -- 98
2019-08-09 22:00:00 18.3 4 Norte 13 Sudoeste 0.4 -- -- 94
2019-08-09 21:00:00 21.3 5 Sudoeste 21 Oeste 0.2 -- -- 84
2019-08-09 20:00:00 23.3 5 Noroeste 10 Noroeste 0 -- -- 73
2019-08-09 19:00:00 23.7 0 Calma 5 Sudeste 0 -- -- 76
2019-08-09 18:00:00 25.2 4 Oeste 14 Norte 0 -- -- 62
2019-08-09 17:00:00 26.6 5 Sudoeste 21 Oeste 0 -- -- 52
2019-08-09 16:00:00 28.4 11 Sudoeste 33 Sur 0 -- -- 48
2019-08-09 15:00:00 27.5 23 Sur 38 Sur 0 -- -- 48
2019-08-09 14:00:00 28.3 15 Sudoeste 35 Sur 0 -- -- 47
2019-08-09 13:00:00 27.4 21 Sur 36 Sur 0 -- -- 50
2019-08-09 12:00:00 26.5 14 Sudoeste 40 Sur 0 -- -- 50
2019-08-09 11:00:00 25.7 18 Sur 41 Sur 0 -- -- 53
2019-08-09 10:00:00 24.1 19 Sur 41 Sur 0 -- -- 59
2019-08-09 09:00:00 23.1 18 Sur 36 Sudoeste 0 -- -- 60
2019-08-09 08:00:00 22.1 16 Sur 31 Sur 0 -- -- 63
2019-08-09 07:00:00 21.6 10 Sur 26 Sur 0 -- -- 63
2019-08-09 06:00:00 20.8 5 Sudoeste 21 Sur 0 -- -- 67
2019-08-09 05:00:00 22.9 11 Sur 31 Sur 0 -- -- 59
2019-08-09 04:00:00 23.4 13 Sur 28 Sudoeste 0 -- -- 58
2019-08-09 03:00:00 23.7 12 Sur 31 Sur 0 -- -- 57
2019-08-09 02:00:00 23.2 9 Sur 23 Sur 0 -- -- 58
2019-08-09 01:00:00 21.1 3 Oeste 9 Oeste 0 -- -- 69
2019-08-09 00:00:00 22.2 3 Oeste 7 Oeste 0 -- -- 63
2019-08-08 23:00:00 21.5 4 Noroeste 6 Noroeste 0 -- -- 70
2019-08-08 22:00:00 20.4 4 Norte 6 Noroeste 0 -- -- 77
2019-08-08 21:00:00 21.2 3 Norte 8 Norte 0 -- -- 76
2019-08-08 20:00:00 23.6 3 Noroeste 13 Sur 0 -- -- 68
2019-08-08 19:00:00 27.7 6 Sudoeste 21 Sur 0 -- -- 49
2019-08-08 18:00:00 27.8 13 Sur 24 Sur 0 -- -- 50
2019-08-08 17:00:00 26.9 12 Sudoeste 30 Sur 0 -- -- 51
2019-08-08 16:00:00 26.9 12 Sur 27 Sudoeste 0 -- -- 53
2019-08-08 15:00:00 26.6 15 Sudoeste 32 Sudoeste 0 -- -- 51
2019-08-08 14:00:00 26.3 14 Sur 31 Sur 0 -- -- 55
2019-08-08 13:00:00 24.8 18 Sur 36 Sur 0 -- -- 59
2019-08-08 12:00:00 23.7 17 Sur 28 Sur 0 -- -- 64
2019-08-08 11:00:00 22.4 13 Sur 22 Sur 0 -- -- 66
2019-08-08 10:00:00 21.2 10 Sur 18 Sur 0 -- -- 70
2019-08-08 09:00:00 19.2 7 Sur 13 Sur 0 -- -- 77
2019-08-08 08:00:00 15.1 0 Calma 5 Sudoeste 0 -- -- 93
2019-08-08 07:00:00 15 3 Norte 6 Nordeste 0 -- -- 94
2019-08-08 06:00:00 15.6 0 Calma 6 Nordeste 0 -- -- 91
2019-08-08 05:00:00 15.9 4 Norte 6 Norte 0 -- -- 95
2019-08-08 04:00:00 16.9 2 Noroeste 4 Noroeste 0 -- -- 91
2019-08-08 03:00:00 16 3 Norte 4 Noroeste 0 -- -- 97
2019-08-08 02:00:00 16.3 3 Norte 4 Norte 0 -- -- 95
2019-08-08 01:00:00 17.1 3 Norte 4 Norte 0 -- -- 92
2019-08-08 00:00:00 17.2 0 Calma 4 Nordeste 0 -- -- 95
2019-08-07 23:00:00 17.3 0 Calma 4 Nordeste 0 -- -- 93
2019-08-07 22:00:00 17.4 3 Norte 5 Nordeste 0 -- -- 93
2019-08-07 21:00:00 17.8 0 Calma 4 Norte 0 -- -- 91
2019-08-07 20:00:00 19.6 4 Norte 19 Norte 0 -- -- 88
2019-08-07 19:00:00 19.4 13 Nordeste 30 Norte 0 -- -- 90
2019-08-07 18:00:00 20.2 14 Norte 30 Norte 0 -- -- 86
2019-08-07 17:00:00 21.1 14 Norte 25 Nordeste 0 -- -- 82
2019-08-07 16:00:00 20.7 13 Norte 27 Norte 0 -- -- 83
2019-08-07 15:00:00 20.3 15 Norte 28 Norte 0 -- -- 83
2019-08-07 14:00:00 20 15 Norte 26 Norte 0 -- -- 83
2019-08-07 13:00:00 19.6 15 Norte 27 Norte 0 -- -- 84
2019-08-07 12:00:00 19 14 Norte 27 Nordeste 0 -- -- 83
2019-08-07 11:00:00 18.5 12 Norte 27 Norte 0 -- -- 87
2019-08-07 10:00:00 17.1 8 Norte 23 Norte 0 -- -- 96
2019-08-07 09:00:00 15.6 5 Oeste 20 Nordeste 0 -- -- 100
2019-08-07 08:00:00 14.7 3 Sudoeste 6 Este 0 -- -- 100
2019-08-07 07:00:00 14.5 3 Noroeste 8 Sudeste 0 -- -- 100
2019-08-07 06:00:00 14.6 2 Oeste 4 Oeste 0 -- -- 100
2019-08-07 05:00:00 14.6 0 Calma 8 Norte 0.2 -- -- 100
2019-08-07 04:00:00 15 8 Nordeste 22 Norte 0 -- -- 100
2019-08-07 03:00:00 15 8 Noroeste 30 Norte 0.4 -- -- 100
2019-08-07 02:00:00 15.2 8 Noroeste 24 Noroeste 0.6 -- -- 100
2019-08-07 01:00:00 15.4 11 Noroeste 23 Noroeste 0 -- -- 100
2019-08-07 00:00:00 16 11 Noroeste 26 Noroeste 0 -- -- 100
2019-08-06 23:00:00 16.7 6 Este 28 Este 0 -- -- 100
2019-08-06 22:00:00 17.8 7 Este 27 Norte 0 -- -- 100
2019-08-06 21:00:00 18.3 7 Norte 36 Norte 0 -- -- 99
2019-08-06 20:00:00 18.5 18 Norte 38 Norte 0 -- -- 99
2019-08-06 19:00:00 19 16 Norte 36 Norte 0 -- -- 99
2019-08-06 18:00:00 19.6 18 Norte 33 Norte 0 -- -- 96
2019-08-06 17:00:00 23 17 Norte 28 Norte 0 -- -- 86
2019-08-06 16:00:00 27.6 4 Oeste 21 Sur 0 -- -- 55
2019-08-06 15:00:00 26.5 13 Sur 25 Sudoeste 0 -- -- 53
2019-08-06 14:00:00 25.4 9 Sur 19 Sur 0 -- -- 60
2019-08-06 13:00:00 24.6 5 Oeste 16 Sudoeste 0 -- -- 63
2019-08-06 12:00:00 23.5 4 Sudoeste 14 Sudoeste 0 -- -- 71
2019-08-06 11:00:00 22.9 4 Sudeste 10 Sudeste 0 -- -- 71
2019-08-06 10:00:00 19.6 4 Sudoeste 8 Sudoeste 0 -- -- 86
2019-08-06 09:00:00 15.8 0 Calma 4 Este 0 -- -- 100
2019-08-06 08:00:00 14.6 2 Sur 4 Sudeste 0 -- -- 100
2019-08-06 07:00:00 15 0 Calma 4 Nordeste 0 -- -- 100
2019-08-06 06:00:00 15.2 0 Calma 5 Sur 0 -- -- 100
2019-08-06 05:00:00 15.4 0 Calma 3 Sur 0 -- -- 100
2019-08-06 04:00:00 15.5 0 Calma 5 Norte 0 -- -- 100
2019-08-06 03:00:00 15.6 0 Calma 12 Norte 0 -- -- 100
2019-08-06 02:00:00 15.6 5 Noroeste 22 Este 0 -- -- 100
2019-08-06 01:00:00 15.8 7 Norte 29 Nordeste 0 -- -- 100
2019-08-06 00:00:00 16.2 8 Noroeste 29 Noroeste 0 -- -- 98
2019-08-05 23:00:00 16.2 8 Noroeste 20 Norte 0 -- -- 99
2019-08-05 22:00:00 16.2 7 Nordeste 25 Norte 0 -- -- 100
2019-08-05 21:00:00 16.4 7 Norte 28 Nordeste 0 -- -- 100
2019-08-05 20:00:00 16.4 11 Norte 36 Norte 0 -- -- 100
2019-08-05 19:00:00 16.4 18 Norte 35 Norte 0 -- -- 100
2019-08-05 18:00:00 17.3 16 Norte 35 Norte 0 -- -- 100
2019-08-05 17:00:00 17.9 17 Norte 33 Norte 0 -- -- 97
2019-08-05 16:00:00 19.5 16 Norte 30 Norte 0 -- -- 90
2019-08-05 15:00:00 24.5 6 Nordeste 14 Norte 0 -- -- 74
2019-08-05 14:00:00 25.4 5 Este 13 Nordeste 0 -- -- 72
2019-08-05 13:00:00 24.1 6 Este 10 Nordeste 0 -- -- 77
2019-08-05 12:00:00 21.7 5 Sudeste 12 Sur 0 -- -- 83
2019-08-05 11:00:00 19.6 4 Sudeste 6 Sur 0 -- -- 96
2019-08-05 10:00:00 16.3 0 Calma 4 Este 0 -- -- 100
2019-08-05 09:00:00 14.9 0 Calma 4 Oeste 0 -- -- 100
2019-08-05 08:00:00 14.5 0 Calma 4 Oeste 0 -- -- 100
2019-08-05 07:00:00 14.4 2 Sur 4 Sur 0 -- -- 100
2019-08-05 06:00:00 14.4 0 Calma 4 Sudoeste 0 -- -- 100
2019-08-05 05:00:00 14.5 2 Sudoeste 8 Norte 0 -- -- 100
2019-08-05 04:00:00 14.7 3 Norte 18 Norte 0 -- -- 100
2019-08-05 03:00:00 14.7 10 Norte 30 Norte 0 -- -- 100
2019-08-05 02:00:00 14.8 11 Norte 33 Nordeste 0 -- -- 100
2019-08-05 01:00:00 15.1 14 Norte 28 Noroeste 0 -- -- 100
2019-08-05 00:00:00 15.4 14 Norte 31 Norte 0.2 -- -- 100
2019-08-04 23:00:00 15.7 9 Nordeste 23 Norte 0 -- -- 100
2019-08-04 22:00:00 15.9 9 Norte 30 Norte 0 -- -- 100
2019-08-04 21:00:00 16.4 11 Norte 27 Norte 0 -- -- 100
2019-08-04 20:00:00 17 8 Nordeste 27 Nordeste 0 -- -- 100
2019-08-04 19:00:00 17.9 13 Norte 32 Norte 0 -- -- 97
2019-08-04 18:00:00 18 17 Norte 31 Norte 0 -- -- 97
2019-08-04 17:00:00 18.2 19 Norte 39 Norte 0 -- -- 96
2019-08-04 16:00:00 20.4 15 Nordeste 33 Nordeste 0 -- -- 88
2019-08-04 15:00:00 24.7 6 Nordeste 19 Norte 0 -- -- 77
2019-08-04 14:00:00 25 5 Este 11 Este 0 -- -- 74
2019-08-04 13:00:00 23.2 6 Este 15 Nordeste 0 -- -- 81
2019-08-04 12:00:00 22 5 Este 13 Nordeste 0 -- -- 83
2019-08-04 11:00:00 21.1 3 Nordeste 12 Norte 0 -- -- 80
2019-08-04 10:00:00 19.8 3 Sur 6 Sur 0 -- -- 88
2019-08-04 09:00:00 16.2 2 Sudoeste 4 Sudoeste 0 -- -- 100
2019-08-04 08:00:00 15.6 0 Calma 4 Norte 0 -- -- 100
2019-08-04 07:00:00 15.1 0 Calma 4 Oeste 0 -- -- 100
2019-08-04 06:00:00 15.7 3 Sudeste 9 Sudeste 0 -- -- 100
2019-08-04 05:00:00 15.8 3 Oeste 18 Sudeste 0 -- -- 100
2019-08-04 04:00:00 16.4 3 Norte 31 Nordeste 0 -- -- 100
2019-08-04 03:00:00 17.2 14 Norte 29 Norte 0 -- -- 99
2019-08-04 02:00:00 17.8 8 Norte 30 Nordeste 0 -- -- 92
2019-08-04 01:00:00 18.3 14 Norte 28 Norte 0 -- -- 94
2019-08-04 00:00:00 18.6 9 Norte 23 Norte 0 -- -- 92
2019-08-03 23:00:00 19 14 Norte 24 Norte 0 -- -- 92
2019-08-03 22:00:00 19.5 14 Norte 30 Norte 0 -- -- 89
2019-08-03 21:00:00 20 16 Norte 31 Norte 0 -- -- 86
2019-08-03 20:00:00 21 17 Norte 35 Norte 0 -- -- 84
2019-08-03 19:00:00 21.7 18 Norte 32 Norte 0 -- -- 84
2019-08-03 18:00:00 22.2 18 Norte 36 Nordeste 0 -- -- 82
2019-08-03 17:00:00 23.3 15 Norte 28 Norte 0 -- -- 78
2019-08-03 16:00:00 23.9 14 Norte 27 Norte 0 -- -- 76
2019-08-03 15:00:00 25.5 11 Nordeste 22 Norte 0 -- -- 64
2019-08-03 14:00:00 27 5 Sur 12 Sudoeste 0 -- -- 42
2019-08-03 13:00:00 26.3 2 Este 9 Sudeste 0 -- -- 46
2019-08-03 12:00:00 24.4 3 Sur 10 Sudeste 0 -- -- 48
2019-08-03 11:00:00 22.1 3 Sur 8 Sur 0 -- -- 61
2019-08-03 10:00:00 19.4 0 Calma 4 Nordeste 0 -- -- 66
2019-08-03 09:00:00 14.7 0 Calma 3 Sudeste 0 -- -- 92
2019-08-03 08:00:00 10.2 0 Calma 2 Nordeste 0 -- -- 100
2019-08-03 07:00:00 9.7 0 Calma 2 Noroeste 0 -- -- 100
2019-08-03 06:00:00 9.9 0 Calma 3 Norte 0 -- -- 100
2019-08-03 05:00:00 10.4 2 Norte 4 Norte 0 -- -- 100
2019-08-03 04:00:00 11.4 4 Norte 5 Norte 0 -- -- 100
2019-08-03 03:00:00 13 3 Noroeste 22 Norte 0 -- -- 100
2019-08-03 02:00:00 13.1 3 Noroeste 19 Norte 0 -- -- 100
2019-08-03 01:00:00 14.7 10 Norte 31 Norte 0 -- -- 100
2019-08-03 00:00:00 15.2 14 Norte 31 Norte 0 -- -- 99
2019-08-02 23:00:00 15.8 8 Norte 21 Norte 0 -- -- 99
2019-08-02 22:00:00 16.3 4 Norte 28 Norte 0 -- -- 99
2019-08-02 21:00:00 16.7 8 Norte 37 Norte 0 -- -- 96
2019-08-02 20:00:00 17.8 22 Norte 40 Norte 0 -- -- 88
2019-08-02 19:00:00 18.4 16 Norte 32 Norte 0 -- -- 86
2019-08-02 18:00:00 18.7 17 Norte 30 Norte 0 -- -- 86
2019-08-02 17:00:00 18.5 16 Norte 32 Norte 0 -- -- 84
2019-08-02 16:00:00 18.4 17 Norte 31 Norte 0 -- -- 85
2019-08-02 15:00:00 17.9 16 Norte 30 Norte 0 -- -- 86
2019-08-02 14:00:00 17.6 15 Norte 30 Nordeste 0 -- -- 86
2019-08-02 13:00:00 16.9 15 Norte 27 Nordeste 0 -- -- 89
2019-08-02 12:00:00 16.4 13 Norte 24 Norte 0 -- -- 90
2019-08-02 11:00:00 14.8 11 Norte 23 Norte 0 -- -- 98
2019-08-02 10:00:00 13.9 10 Norte 22 Norte 0 -- -- 100
2019-08-02 09:00:00 13.6 9 Norte 26 Nordeste 0 -- -- 100
2019-08-02 08:00:00 13.4 7 Norte 21 Este 0 -- -- 100
2019-08-02 07:00:00 13.6 7 Norte 22 Norte 0 -- -- 100
2019-08-02 06:00:00 13.8 4 Este 15 Este 0.2 -- -- 100
2019-08-02 05:00:00 14 3 Nordeste 14 Este 0 -- -- 100
2019-08-02 04:00:00 14.1 4 Norte 21 Norte 0 -- -- 100
2019-08-02 03:00:00 14.2 12 Norte 29 Norte 0 -- -- 100
2019-08-02 02:00:00 14.2 12 Norte 32 Norte 0 -- -- 100
2019-08-02 01:00:00 14.4 9 Nordeste 30 Norte 0 -- -- 98
2019-08-02 00:00:00 14.2 7 Norte 23 Noroeste 0 -- -- 100
2019-08-01 23:00:00 14.9 5 Este 23 Nordeste 0.2 -- -- 100
2019-08-01 22:00:00 14.9 7 Nordeste 26 Norte 0.2 -- -- 100
2019-08-01 21:00:00 15.1 8 Norte 23 Noroeste 0 -- -- 100
2019-08-01 20:00:00 15.7 6 Oeste 26 Norte 0 -- -- 100
2019-08-01 19:00:00 16.4 14 Norte 29 Noroeste 0 -- -- 98
2019-08-01 18:00:00 18.1 15 Norte 35 Norte 0 -- -- 90
2019-08-01 17:00:00 19.7 17 Norte 36 Norte 0 -- -- 80
2019-08-01 16:00:00 20 14 Norte 24 Norte 0 -- -- 78
2019-08-01 15:00:00 21.7 8 Nordeste 19 Norte 0 -- -- 74
2019-08-01 14:00:00 22.4 5 Este 11 Este 0 -- -- 68
2019-08-01 13:00:00 19.7 4 Oeste 15 Sudoeste 0 -- -- 84
2019-08-01 12:00:00 15.6 8 Sur 23 Este 0 -- -- 93
2019-08-01 11:00:00 12.6 5 Este 15 Oeste 3.8 -- -- 100
2019-08-01 10:00:00 12.2 13 Norte 26 Norte 0.2 -- -- 98
2019-08-01 09:00:00 12.3 9 Norte 37 Norte 0 -- -- 98
2019-08-01 08:00:00 12.4 19 Norte 40 Nordeste 0.4 -- -- 99
2019-08-01 07:00:00 12.7 15 Nordeste 30 Norte 0.8 -- -- 99
2019-08-01 06:00:00 12.4 0 Calma 5 Nordeste 0 -- -- 100
2019-08-01 05:00:00 12.1 0 Calma 3 Nordeste 0 -- -- 100
2019-08-01 04:00:00 11.5 0 Calma 4 Noroeste 0 -- -- 100
2019-08-01 03:00:00 11.4 0 Calma 4 Noroeste 0 -- -- 100
2019-08-01 02:00:00 11.7 0 Calma 4 Noroeste 0 -- -- 100
2019-08-01 01:00:00 11.8 2 Noroeste 5 Noroeste 0 -- -- 100
2019-08-01 00:00:00 12.2 3 Oeste 7 Norte 0 -- -- 100
2019-07-31 23:00:00 12.5 3 Noroeste 14 Noroeste 0 -- -- 99
2019-07-31 22:00:00 13.8 8 Norte 39 Nordeste 0 -- -- 94
2019-07-31 21:00:00 14.2 14 Norte 29 Norte 0 -- -- 93
2019-07-31 20:00:00 14.8 13 Norte 30 Norte 0 -- -- 90
2019-07-31 19:00:00 15.2 15 Norte 32 Norte 0 -- -- 88
2019-07-31 18:00:00 14.9 17 Norte 35 Norte 0 -- -- 89
2019-07-31 17:00:00 15.1 17 Norte 33 Norte 0 -- -- 88
2019-07-31 16:00:00 16 15 Norte 35 Norte 0 -- -- 85
2019-07-31 15:00:00 15.5 16 Norte 30 Norte 0 -- -- 86
2019-07-31 14:00:00 15.6 14 Norte 28 Norte 0 -- -- 85
2019-07-31 13:00:00 15.3 13 Norte 28 Norte 0 -- -- 84
2019-07-31 12:00:00 14.5 13 Norte 31 Norte 0 -- -- 84
2019-07-31 11:00:00 13.2 14 Norte 29 Noroeste 0 -- -- 86
2019-07-31 10:00:00 12.4 15 Norte 38 Nordeste 0 -- -- 86
2019-07-31 09:00:00 11 13 Norte 36 Nordeste 0 -- -- 91
2019-07-31 08:00:00 10 15 Norte 32 Nordeste 0 -- -- 96
2019-07-31 07:00:00 9.7 12 Norte 28 Noroeste 0 -- -- 98
2019-07-31 06:00:00 9.7 11 Norte 25 Norte 0 -- -- 99
2019-07-31 05:00:00 9.8 4 Noroeste 16 Nordeste 0 -- -- 100
2019-07-31 04:00:00 9.9 6 Nordeste 26 Este 0 -- -- 97
2019-07-31 03:00:00 9.9 9 Este 21 Este 0 -- -- 99
2019-07-31 02:00:00 9.8 10 Este 23 Este 0 -- -- 98
2019-07-31 01:00:00 10.1 11 Noroeste 23 Noroeste 0 -- -- 96
2019-07-31 00:00:00 10.5 4 Sudeste 18 Este 0 -- -- 97
2019-07-30 23:00:00 10.6 9 Este 23 Este 0 -- -- 91
2019-07-30 22:00:00 11 10 Sudeste 24 Sudeste 0 -- -- 94
2019-07-30 21:00:00 11.6 5 Sur 19 Este 0 -- -- 89
2019-07-30 20:00:00 12.2 8 Este 22 Este 0 -- -- 84
2019-07-30 19:00:00 13.1 7 Sudeste 18 Este 0 -- -- 84
2019-07-30 18:00:00 13.5 4 Oeste 23 Noroeste 0 -- -- 85
2019-07-30 17:00:00 13.8 7 Noroeste 27 Noroeste 0 -- -- 85
2019-07-30 16:00:00 14.7 12 Norte 27 Noroeste 0 -- -- 81
2019-07-30 15:00:00 14 5 Noroeste 23 Noroeste 0 -- -- 81
2019-07-30 14:00:00 12.1 11 Norte 22 Este 0 -- -- 94
2019-07-30 13:00:00 12.7 6 Noroeste 24 Noroeste 0.4 -- -- 92
2019-07-30 12:00:00 12.4 6 Noroeste 19 Noroeste 0.4 -- -- 96
2019-07-30 11:00:00 12.6 7 Noroeste 24 Noroeste 0 -- -- 90
2019-07-30 10:00:00 12.3 6 Noroeste 21 Nordeste 0 -- -- 92
2019-07-30 09:00:00 11.2 10 Noroeste 21 Noroeste 0 -- -- 95
2019-07-30 08:00:00 11 8 Noroeste 23 Norte 0 -- -- 95
2019-07-30 07:00:00 10.5 9 Noroeste 23 Noroeste 0 -- -- 93
2019-07-30 06:00:00 10.6 9 Norte 28 Norte 0 -- -- 95
2019-07-30 05:00:00 10.8 10 Norte 26 Norte 0.2 -- -- 98
2019-07-30 04:00:00 11.2 9 Noroeste 21 Noroeste 0.4 -- -- 100
2019-07-30 03:00:00 11.2 4 Oeste 24 Noroeste 0.6 -- -- 100
2019-07-30 02:00:00 11.6 9 Noroeste 24 Noroeste 0.8 -- -- 100
2019-07-30 01:00:00 11.8 8 Noroeste 21 Este 0.4 -- -- 100
2019-07-30 00:00:00 12.1 5 Oeste 23 Noroeste 0.6 -- -- 100
2019-07-29 23:00:00 12.2 9 Noroeste 30 Norte 0.2 -- -- 100
2019-07-29 22:00:00 12.2 7 Noroeste 24 Noroeste 0.6 -- -- 100
2019-07-29 21:00:00 13.4 4 Sudeste 15 Este 1 -- -- 100
2019-07-29 20:00:00 13.9 5 Sur 17 Norte 0.6 -- -- 100
2019-07-29 19:00:00 14.7 5 Noroeste 22 Noroeste 0 -- -- 100
2019-07-29 18:00:00 15.5 10 Norte 36 Norte 0 -- -- 97
2019-07-29 17:00:00 17.7 19 Norte 37 Norte 0 -- -- 91
2019-07-29 16:00:00 20.5 18 Norte 33 Norte 0 -- -- 79
2019-07-29 15:00:00 24.2 9 Sudoeste 23 Norte 0 -- -- 59
2019-07-29 14:00:00 24.2 9 Sur 21 Sudoeste 0 -- -- 45
2019-07-29 13:00:00 23.8 8 Sur 15 Sur 0 -- -- 52
2019-07-29 12:00:00 22.6 7 Sur 14 Sudeste 0 -- -- 56
2019-07-29 11:00:00 21.4 6 Sudeste 12 Este 0 -- -- 54
2019-07-29 10:00:00 19.5 2 Este 6 Este 0 -- -- 59
2019-07-29 09:00:00 15.1 2 Nordeste 5 Nordeste 0 -- -- 78
2019-07-29 08:00:00 8.8 0 Calma 5 Sur 0 -- -- 100
2019-07-29 07:00:00 9.1 4 Norte 6 Norte 0 -- -- 89
2019-07-29 06:00:00 6.9 0 Calma 4 Norte 0 -- -- 100
2019-07-29 05:00:00 8.1 0 Calma 5 Norte 0 -- -- 96
2019-07-29 04:00:00 8 2 Norte 3 Norte 0 -- -- 94
2019-07-29 03:00:00 7.9 0 Calma 4 Norte 0 -- -- 93
2019-07-29 02:00:00 8.7 3 Norte 4 Norte 0 -- -- 91
2019-07-29 01:00:00 7.6 0 Calma 5 Nordeste 0 -- -- 86
2019-07-29 00:00:00 8.3 2 Norte 4 Norte 0 -- -- 100
2019-07-28 23:00:00 9.8 0 Calma 17 Norte 0 -- -- 100
2019-07-28 22:00:00 12.8 8 Norte 18 Norte 0 -- -- 91
2019-07-28 21:00:00 13.2 7 Norte 18 Norte 0 -- -- 88
2019-07-28 20:00:00 15.2 8 Noroeste 23 Noroeste 0 -- -- 79
2019-07-28 19:00:00 16.1 11 Norte 25 Noroeste 0 -- -- 76
2019-07-28 18:00:00 16.8 8 Norte 25 Noroeste 0 -- -- 77
2019-07-28 17:00:00 16.1 13 Noroeste 23 Noroeste 0 -- -- 74
2019-07-28 16:00:00 16.1 10 Norte 21 Noroeste 0 -- -- 73
2019-07-28 15:00:00 14.4 7 Norte 22 Norte 0 -- -- 87
2019-07-28 14:00:00 14.9 5 Noroeste 19 Norte 0 -- -- 82
2019-07-28 13:00:00 14 6 Norte 21 Noroeste 0 -- -- 82
2019-07-28 12:00:00 12.9 2 Sudoeste 25 Este 0 -- -- 95
2019-07-28 11:00:00 12.2 9 Este 21 Este 0 -- -- 96
2019-07-28 10:00:00 12.9 6 Sur 21 Noroeste 0 -- -- 93
2019-07-28 09:00:00 11.2 5 Sudoeste 22 Sudeste 1 -- -- 100
2019-07-28 08:00:00 11 6 Nordeste 15 Noroeste 0.6 -- -- 100
2019-07-28 07:00:00 10.5 2 Sur 9 Este 0 -- -- 100
2019-07-28 06:00:00 10.5 4 Sudeste 16 Norte 3 -- -- 100
2019-07-28 05:00:00 11 5 Sur 13 Sudoeste 3.2 -- -- 100
2019-07-28 04:00:00 10.9 3 Sudeste 19 Oeste 1.6 -- -- 100
2019-07-28 03:00:00 11 5 Sur 13 Sudeste 1.2 -- -- 100
2019-07-28 02:00:00 10.8 4 Sudoeste 15 Sudoeste 0.2 -- -- 100
2019-07-28 01:00:00 10.8 5 Sudoeste 13 Oeste 1.2 -- -- 100
2019-07-28 00:00:00 10.9 5 Oeste 18 Oeste 0.4 -- -- 99
2019-07-27 23:00:00 10.8 3 Oeste 14 Oeste 0.6 -- -- 100
2019-07-26 12:00:00 18.1 6 Nordeste 15 Oeste 0 -- -- 97
2019-07-26 11:00:00 18 3 Oeste 11 Nordeste 0 -- -- 98
2019-07-26 10:00:00 16.4 5 Nordeste 20 Norte 0.2 -- -- 100
2019-07-26 09:00:00 16.1 6 Norte 24 Norte 0.8 -- -- 100
2019-07-26 08:00:00 15.9 11 Norte 20 Norte 0.4 -- -- 100
2019-07-26 07:00:00 16 5 Norte 22 Noroeste 0.2 -- -- 100
2019-07-26 06:00:00 16.3 4 Norte 24 Noroeste 0.6 -- -- 100
2019-07-26 05:00:00 16.2 8 Noroeste 34 Norte 0.4 -- -- 100
2019-07-26 04:00:00 16.7 9 Nordeste 30 Noroeste 0.2 -- -- 100
2019-07-26 03:00:00 17.2 6 Norte 26 Norte 0.2 -- -- 100
2019-07-26 02:00:00 17.4 4 Norte 19 Nordeste 0 -- -- 100
2019-07-26 01:00:00 17.5 6 Norte 31 Norte 0 -- -- 100
2019-07-26 00:00:00 17.9 20 Norte 36 Norte 0 -- -- 100
2019-07-25 23:00:00 19 10 Noroeste 32 Norte 0 -- -- 100
2019-07-25 22:00:00 20.4 7 Nordeste 22 Norte 0 -- -- 95
2019-07-25 21:00:00 21.1 7 Noroeste 31 Nordeste 0 -- -- 92
2019-07-25 20:00:00 23.6 8 Norte 27 Norte 0 -- -- 83
2019-07-25 19:00:00 24.5 14 Norte 32 Norte 0 -- -- 90
2019-07-25 18:00:00 26.6 15 Norte 31 Norte 0 -- -- 80
2019-07-25 17:00:00 32.4 11 Sudoeste 28 Sur 0 -- -- 30
2019-07-25 16:00:00 32.3 12 Sur 27 Sur 0 -- -- 30
2019-07-25 15:00:00 31.8 12 Sur 27 Sur 0 -- -- 32
2019-07-25 14:00:00 31.3 15 Sur 25 Sur 0 -- -- 37
2019-07-25 13:00:00 30.3 13 Sur 27 Sur 0 -- -- 37
2019-07-25 12:00:00 28.5 13 Sur 24 Sur 0 -- -- 40
2019-07-25 11:00:00 28 6 Sur 17 Sur 0 -- -- 43
2019-07-25 10:00:00 23.6 3 Noroeste 8 Sudeste 0 -- -- 60
2019-07-25 09:00:00 24.1 2 Oeste 8 Sudeste 0 -- -- 52
2019-07-25 08:00:00 21.5 2 Norte 9 Noroeste 0 -- -- 49
2019-07-25 07:00:00 22.1 4 Noroeste 9 Norte 0 -- -- 45
2019-07-25 06:00:00 22.3 4 Norte 7 Norte 0 -- -- 44
2019-07-25 05:00:00 24.6 6 Nordeste 19 Este 0 -- -- 37
2019-07-25 04:00:00 25 6 Este 23 Sur 0 -- -- 34
2019-07-25 03:00:00 23.5 3 Este 15 Sur 0 -- -- 39
2019-07-25 02:00:00 23.8 3 Sur 13 Sur 0 -- -- 39
2019-07-25 01:00:00 24.6 4 Este 13 Sudeste 0 -- -- 38
2019-07-25 00:00:00 24.1 3 Nordeste 10 Este 0 -- -- 41
2019-07-24 23:00:00 24.1 3 Norte 9 Nordeste 0 -- -- 42
2019-07-24 22:00:00 22.3 2 Noroeste 8 Norte 0 -- -- 48
2019-07-24 21:00:00 24.4 6 Norte 9 Norte 0 -- -- 47
2019-07-24 20:00:00 25.9 5 Norte 10 Sur 0 -- -- 48
2019-07-24 19:00:00 30.9 4 Sudeste 17 Sudoeste 0 -- -- 37
2019-07-24 18:00:00 31.8 10 Sur 24 Sudoeste 0 -- -- 31
2019-07-24 17:00:00 31.6 12 Sur 26 Sur 0 -- -- 32
2019-07-24 16:00:00 31 10 Sudoeste 19 Sudoeste 0 -- -- 35
2019-07-24 15:00:00 30 3 Nordeste 12 Sur 0 -- -- 45
2019-07-24 14:00:00 28.6 8 Sur 26 Sudoeste 0 -- -- 44
2019-07-24 13:00:00 29.1 13 Sur 25 Sur 0 -- -- 40
2019-07-24 12:00:00 28.6 7 Sur 17 Sur 0 -- -- 42
2019-07-24 11:00:00 27.5 3 Sur 9 Sur 0 -- -- 48
2019-07-24 10:00:00 26.2 0 Calma 7 Norte 0 -- -- 54
2019-07-24 09:00:00 23.2 4 Norte 9 Nordeste 0 -- -- 55
2019-07-24 08:00:00 19.9 3 Noroeste 8 Norte 0 -- -- 63
2019-07-24 07:00:00 20.7 5 Norte 11 Nordeste 0 -- -- 54
2019-07-24 06:00:00 19.2 2 Noroeste 7 Norte 0 -- -- 65
2019-07-24 05:00:00 18.3 3 Noroeste 9 Nordeste 0 -- -- 73
2019-07-24 04:00:00 17.3 2 Noroeste 11 Norte 0 -- -- 82
2019-07-24 03:00:00 17.8 4 Norte 10 Sur 0 -- -- 82
2019-07-24 02:00:00 17.7 6 Sur 14 Sur 0 -- -- 86
2019-07-24 01:00:00 16.8 2 Norte 6 Norte 0 -- -- 91
2019-07-24 00:00:00 17.7 5 Oeste 27 Nordeste 0.2 -- -- 91
2019-07-23 23:00:00 18.9 8 Norte 16 Noroeste 0.4 -- -- 85
2019-07-23 22:00:00 24 14 Nordeste 29 Nordeste 0 -- -- 53
2019-07-23 21:00:00 26.3 12 Norte 31 Nordeste 0 -- -- 62
2019-07-23 20:00:00 25.8 6 Norte 8 Norte 0 -- -- 47
2019-07-23 19:00:00 30.4 4 Sudoeste 18 Sur 0 -- -- 44
2019-07-23 18:00:00 31.7 10 Sudoeste 26 Sur 0 -- -- 30
2019-07-23 17:00:00 32.6 10 Sudoeste 27 Sudoeste 0 -- -- 29
2019-07-23 16:00:00 32.6 12 Sur 30 Sur 0 -- -- 27
2019-07-23 15:00:00 31.7 13 Sur 32 Sur 0 -- -- 34
2019-07-23 14:00:00 30.6 16 Sur 29 Sudoeste 0 -- -- 32
2019-07-23 13:00:00 29.7 16 Sur 38 Sudoeste 0 -- -- 30
2019-07-23 12:00:00 28.6 17 Sudoeste 35 Sudeste 0 -- -- 33
2019-07-23 11:00:00 27.8 17 Sur 30 Sur 0 -- -- 40
2019-07-23 10:00:00 26.3 10 Sur 24 Sur 0 -- -- 38
2019-07-23 09:00:00 23.9 2 Este 10 Noroeste 0 -- -- 44
2019-07-23 08:00:00 22.1 3 Oeste 19 Sudeste 0 -- -- 42
2019-07-23 07:00:00 23.3 7 Este 18 Sudeste 0 -- -- 37
2019-07-23 06:00:00 22.6 3 Noroeste 15 Sudeste 0 -- -- 39
2019-07-23 05:00:00 23.3 2 Este 11 Sudoeste 0 -- -- 41
2019-07-23 04:00:00 22 4 Noroeste 22 Sudeste 0 -- -- 43
2019-07-23 03:00:00 23.7 4 Nordeste 18 Este 0 -- -- 39
2019-07-23 02:00:00 24 5 Nordeste 13 Este 0 -- -- 39
2019-07-23 01:00:00 23.6 3 Nordeste 10 Nordeste 0 -- -- 44
2019-07-23 00:00:00 22.9 4 Norte 9 Noroeste 0 -- -- 48
2019-07-22 23:00:00 23.1 5 Norte 10 Norte 0 -- -- 47
2019-07-22 22:00:00 22.7 6 Norte 8 Norte 0 -- -- 57
2019-07-22 21:00:00 23.7 5 Norte 10 Nordeste 0 -- -- 59
2019-07-22 20:00:00 25.4 5 Norte 12 Norte 0 -- -- 57
2019-07-22 19:00:00 28.1 6 Nordeste 10 Norte 0 -- -- 56
2019-07-22 18:00:00 31.2 4 Norte 13 Sudoeste 0 -- -- 48
2019-07-22 17:00:00 32 6 Sur 19 Sur 0 -- -- 37
2019-07-22 16:00:00 31.4 10 Sudoeste 23 Sur 0 -- -- 37
2019-07-22 15:00:00 30.6 12 Sur 25 Sudoeste 0 -- -- 42
2019-07-22 14:00:00 30.2 10 Sudoeste 24 Sur 0 -- -- 44
2019-07-22 13:00:00 29.1 13 Sur 26 Sur 0 -- -- 44
2019-07-22 12:00:00 27.7 11 Sur 22 Sur 0 -- -- 49
2019-07-22 11:00:00 26.7 5 Sudeste 17 Sudeste 0 -- -- 48
2019-07-22 10:00:00 25.6 2 Sudeste 6 Este 0 -- -- 61
2019-07-22 09:00:00 21.6 0 Calma 7 Nordeste 0 -- -- 79
2019-07-22 08:00:00 17.8 5 Norte 10 Nordeste 0 -- -- 99
2019-07-22 07:00:00 16.1 4 Norte 6 Norte 0 -- -- 100
2019-07-22 06:00:00 16.1 2 Sudeste 6 Sudoeste 0 -- -- 100
2019-07-22 05:00:00 16.1 2 Nordeste 5 Oeste 0 -- -- 100
2019-07-22 04:00:00 16 0 Calma 3 Noroeste 0 -- -- 100
2019-07-22 03:00:00 16 0 Calma 8 Norte 0 -- -- 100
2019-07-22 02:00:00 16.8 3 Nordeste 26 Norte 0 -- -- 100
2019-07-22 01:00:00 17.4 8 Norte 22 Nordeste 0 -- -- 100
2019-07-22 00:00:00 18 7 Norte 24 Norte 0 -- -- 100